createdAt,value
2014-10-03T00:00:51.168Z,75.1
2014-10-03T00:01:55.873Z,74.72
2014-10-03T00:03:00.578Z,73.64
2014-10-03T00:04:05.267Z,72.72
2014-10-03T00:05:09.973Z,72.63
2014-10-03T00:06:14.678Z,72.4
2014-10-03T00:07:19.368Z,72.5
2014-10-03T00:08:24.370Z,72.88
2014-10-03T00:09:29.059Z,73.33
2014-10-03T00:10:33.765Z,74.06
2014-10-03T00:11:38.453Z,74.4
2014-10-03T00:12:43.158Z,74.55
2014-10-03T00:13:47.865Z,74.42
2014-10-03T00:14:52.570Z,74.31
2014-10-03T00:15:57.275Z,74.57
2014-10-03T00:17:01.980Z,74.43
2014-10-03T00:18:06.685Z,74.94
2014-10-03T00:19:11.391Z,74.58
2014-10-03T00:20:16.095Z,73
2014-10-03T00:21:20.800Z,72.43
2014-10-03T00:22:25.507Z,73.05
2014-10-03T00:23:30.211Z,73.82
2014-10-03T00:24:34.917Z,74.54
2014-10-03T00:25:39.903Z,73.5
2014-10-03T00:26:44.905Z,73.43
2014-10-03T00:27:49.610Z,73.44
2014-10-03T00:28:54.331Z,74.23
2014-10-03T00:29:59.021Z,73.76
2014-10-03T00:31:03.726Z,74.35
2014-10-03T00:32:08.431Z,75.06
2014-10-03T00:33:13.136Z,74.72
2014-10-03T00:34:18.122Z,74.59
2014-10-03T00:35:22.827Z,74.22
2014-10-03T00:36:27.534Z,74.7
2014-10-03T00:37:32.239Z,75.12
2014-10-03T00:38:36.928Z,75.16
2014-10-03T00:39:41.632Z,74.83
2014-10-03T00:40:46.337Z,74.22
2014-10-03T00:41:51.043Z,74.52
2014-10-03T00:42:55.749Z,74.81
2014-10-03T00:44:00.454Z,74.71
2014-10-03T00:45:04.456Z,74.68
2014-10-03T00:46:09.177Z,74.71
2014-10-03T00:47:13.882Z,74.95
2014-10-03T00:48:18.587Z,74.72
2014-10-03T00:49:23.292Z,75.09
2014-10-03T00:50:27.981Z,75.05
2014-10-03T00:51:32.983Z,75.09
2014-10-03T00:52:37.689Z,75.28
2014-10-03T00:53:42.409Z,74.69
2014-10-03T00:54:47.099Z,74.34
2014-10-03T00:55:51.805Z,74.56
2014-10-03T00:56:56.791Z,75.01
2014-10-03T00:58:01.480Z,75.04
2014-10-03T00:59:06.186Z,74.75
2014-10-03T01:00:10.875Z,74.68
2014-10-03T01:01:15.581Z,74.52
2014-10-03T01:02:20.270Z,74.71
2014-10-03T01:03:24.961Z,74.94
2014-10-03T01:04:29.665Z,75.15
2014-10-03T01:05:34.355Z,75.11
2014-10-03T01:06:39.356Z,74.63
2014-10-03T01:07:44.046Z,74.76
2014-10-03T01:08:48.048Z,74.78
2014-10-03T01:09:52.754Z,74.9
2014-10-03T01:10:57.443Z,75
2014-10-03T01:12:02.429Z,74.97
2014-10-03T01:13:07.135Z,73.47
2014-10-03T01:14:12.121Z,72.49
2014-10-03T01:15:17.108Z,72.39
2014-10-03T01:16:21.813Z,73.22
2014-10-03T01:17:26.502Z,74.83
2014-10-03T01:18:31.192Z,74.86
2014-10-03T01:19:35.897Z,73.3
2014-10-03T01:20:40.602Z,72.76
2014-10-03T01:21:45.588Z,72.36
2014-10-03T01:22:50.278Z,72.34
2014-10-03T01:23:54.984Z,71.93
2014-10-03T01:24:59.689Z,71.64
2014-10-03T01:26:04.379Z,72.92
2014-10-03T01:27:09.084Z,73.78
2014-10-03T01:28:13.773Z,74.29
2014-10-03T01:29:18.477Z,74.81
2014-10-03T01:30:23.168Z,74.96
2014-10-03T01:31:27.873Z,75.81
2014-10-03T01:32:32.562Z,74.69
2014-10-03T01:33:37.252Z,74.13
2014-10-03T01:34:41.957Z,73.41
2014-10-03T01:35:46.943Z,73.37
2014-10-03T01:36:51.649Z,73.34
2014-10-03T01:37:56.636Z,73.08
2014-10-03T01:39:01.324Z,73.36
2014-10-03T01:40:06.030Z,72.83
2014-10-03T01:41:10.720Z,73.62
2014-10-03T01:42:15.705Z,74.53
2014-10-03T01:43:20.412Z,74.43
2014-10-03T01:44:25.398Z,74.75
2014-10-03T01:45:30.383Z,74.73
2014-10-03T01:46:35.386Z,74.67
2014-10-03T01:47:40.076Z,75.24
2014-10-03T01:48:44.781Z,75.04
2014-10-03T01:49:49.486Z,75.01
2014-10-03T01:50:54.489Z,75.17
2014-10-03T01:51:59.178Z,75.2
2014-10-03T01:53:03.867Z,75.39
2014-10-03T01:54:08.870Z,75.29
2014-10-03T01:55:13.559Z,75.4
2014-10-03T01:56:18.249Z,75.5
2014-10-03T01:57:23.251Z,75.5
2014-10-03T01:58:27.941Z,75.37
2014-10-03T01:59:32.630Z,75.51
2014-10-03T02:00:37.335Z,75.08
2014-10-03T02:01:42.025Z,74.31
2014-10-03T02:02:46.730Z,74.62
2014-10-03T02:03:51.419Z,75.18
2014-10-03T02:04:56.406Z,74.96
2014-10-03T02:06:01.143Z,75.09
2014-10-03T02:07:05.894Z,75.42
2014-10-03T02:08:10.646Z,75.63
2014-10-03T02:09:14.694Z,75.39
2014-10-03T02:10:19.430Z,75.04
2014-10-03T02:11:24.151Z,73.36
2014-10-03T02:12:28.857Z,72.28
2014-10-03T02:13:33.579Z,72.23
2014-10-03T02:14:37.614Z,73.3
2014-10-03T02:15:42.316Z,74.29
2014-10-03T02:16:47.028Z,74.72
2014-10-03T02:17:51.740Z,74.84
2014-10-03T02:18:56.435Z,75.09
2014-10-03T02:20:01.146Z,75.14
2014-10-03T02:21:05.839Z,75.31
2014-10-03T02:22:10.844Z,75.61
2014-10-03T02:23:15.534Z,75.29
2014-10-03T02:24:20.226Z,75.25
2014-10-03T02:25:24.934Z,75.09
2014-10-03T02:26:29.640Z,75.02
2014-10-03T02:27:34.330Z,75.42
2014-10-03T02:28:39.036Z,75.48
2014-10-03T02:29:43.727Z,75.2
2014-10-03T02:30:48.431Z,75.24
2014-10-03T02:31:52.450Z,75.29
2014-10-03T02:32:57.155Z,75.3
2014-10-03T02:34:01.860Z,75.12
2014-10-03T02:35:06.550Z,73.75
2014-10-03T02:36:11.255Z,72.56
2014-10-03T02:37:15.960Z,72.09
2014-10-03T02:38:20.666Z,72.66
2014-10-03T02:39:25.370Z,72.36
2014-10-03T02:40:30.091Z,72.99
2014-10-03T02:41:34.796Z,72.94
2014-10-03T02:42:39.502Z,73.19
2014-10-03T02:43:44.207Z,72.83
2014-10-03T02:44:48.897Z,72.36
2014-10-03T02:45:53.899Z,73.51
2014-10-03T02:46:58.901Z,73.97
2014-10-03T02:48:03.590Z,74.37
2014-10-03T02:49:08.295Z,74.77
2014-10-03T02:50:13.001Z,74.88
2014-10-03T02:51:17.706Z,74.95
2014-10-03T02:52:22.411Z,75.11
2014-10-03T02:53:27.398Z,75.38
2014-10-03T02:54:32.400Z,75.34
2014-10-03T02:55:37.104Z,75.34
2014-10-03T02:56:41.810Z,75.5
2014-10-03T02:57:46.500Z,75.42
2014-10-03T02:58:51.205Z,75.53
2014-10-03T02:59:56.207Z,75.42
2014-10-03T03:01:00.912Z,75.17
2014-10-03T03:02:05.617Z,75.25
2014-10-03T03:03:10.322Z,75.26
2014-10-03T03:04:15.606Z,75.06
2014-10-03T03:05:20.311Z,75.13
2014-10-03T03:06:25.016Z,75.25
2014-10-03T03:07:29.722Z,74.09
2014-10-03T03:08:34.443Z,72.77
2014-10-03T03:09:39.429Z,72.25
2014-10-03T03:10:44.133Z,73.13
2014-10-03T03:11:48.824Z,73.63
2014-10-03T03:12:53.529Z,74.04
2014-10-03T03:13:58.218Z,74.39
2014-10-03T03:15:02.924Z,74.73
2014-10-03T03:16:07.613Z,74.84
2014-10-03T03:17:12.318Z,74.98
2014-10-03T03:18:17.305Z,74.54
2014-10-03T03:19:21.994Z,74.9
2014-10-03T03:20:26.700Z,75.25
2014-10-03T03:21:31.389Z,75.23
2014-10-03T03:22:36.094Z,75.25
2014-10-03T03:23:40.783Z,75.14
2014-10-03T03:24:45.770Z,75.21
2014-10-03T03:25:50.476Z,75.19
2014-10-03T03:26:55.164Z,75.4
2014-10-03T03:27:59.855Z,75.79
2014-10-03T03:29:04.560Z,75.81
2014-10-03T03:30:09.248Z,75.55
2014-10-03T03:31:13.939Z,75.33
2014-10-03T03:32:18.644Z,75.3
2014-10-03T03:33:23.334Z,75.64
2014-10-03T03:34:28.320Z,75.49
2014-10-03T03:35:33.025Z,75.65
2014-10-03T03:36:37.716Z,75.58
2014-10-03T03:37:42.420Z,73.97
2014-10-03T03:38:47.109Z,74.24
2014-10-03T03:39:51.814Z,74.83
2014-10-03T03:40:56.801Z,74.11
2014-10-03T03:42:01.788Z,74.08
2014-10-03T03:43:06.493Z,72.86
2014-10-03T03:44:11.183Z,72.05
2014-10-03T03:45:15.888Z,71.94
2014-10-03T03:46:20.576Z,71.68
2014-10-03T03:47:25.282Z,71.71
2014-10-03T03:48:29.972Z,71.98
2014-10-03T03:49:34.677Z,72.58
2014-10-03T03:50:39.367Z,73.56
2014-10-03T03:51:44.056Z,74.01
2014-10-03T03:52:48.762Z,74.6
2014-10-03T03:53:53.763Z,74.74
2014-10-03T03:54:58.453Z,75.18
2014-10-03T03:56:03.455Z,75.43
2014-10-03T03:57:08.145Z,75.68
2014-10-03T03:58:12.849Z,75.72
2014-10-03T03:59:17.540Z,75.87
2014-10-03T04:00:22.245Z,75.71
2014-10-03T04:01:26.934Z,76.19
2014-10-03T04:02:31.624Z,76.16
2014-10-03T04:03:36.329Z,75.97
2014-10-03T04:04:40.331Z,75.83
2014-10-03T04:05:45.021Z,75.5
2014-10-03T04:06:49.710Z,75.67
2014-10-03T04:07:54.416Z,75.71
2014-10-03T04:08:59.105Z,75.87
2014-10-03T04:10:03.810Z,75.72
2014-10-03T04:11:08.499Z,75.43
2014-10-03T04:12:13.190Z,75.62
2014-10-03T04:13:18.473Z,75.73
2014-10-03T04:14:22.475Z,75.03
2014-10-03T04:15:27.180Z,74.32
2014-10-03T04:16:31.885Z,74.5
2014-10-03T04:17:36.590Z,73.92
2014-10-03T04:18:41.296Z,72.58
2014-10-03T04:19:46.001Z,72.08
2014-10-03T04:20:50.691Z,72.52
2014-10-03T04:21:55.395Z,73.92
2014-10-03T04:22:59.397Z,74.77
2014-10-03T04:24:04.087Z,74.26
2014-10-03T04:25:09.089Z,73.39
2014-10-03T04:26:13.778Z,73.63
2014-10-03T04:27:18.483Z,74.26
2014-10-03T04:28:23.173Z,74.94
2014-10-03T04:29:28.176Z,75.3
2014-10-03T04:30:32.864Z,75.46
2014-10-03T04:31:37.571Z,75.55
2014-10-03T04:32:42.276Z,75.45
2014-10-03T04:33:46.981Z,75.54
2014-10-03T04:34:51.967Z,75.37
2014-10-03T04:35:56.672Z,75.91
2014-10-03T04:37:01.377Z,75.14
2014-10-03T04:38:06.083Z,74.67
2014-10-03T04:39:11.070Z,74.97
2014-10-03T04:40:15.775Z,75.27
2014-10-03T04:41:20.480Z,75.19
2014-10-03T04:42:25.184Z,75.38
2014-10-03T04:43:29.906Z,75.68
2014-10-03T04:44:34.595Z,74.75
2014-10-03T04:45:39.316Z,74.64
2014-10-03T04:46:44.021Z,75.09
2014-10-03T04:47:48.711Z,75.47
2014-10-03T04:48:53.416Z,75.62
2014-10-03T04:49:58.121Z,75.68
2014-10-03T04:51:02.826Z,75.61
2014-10-03T04:52:07.547Z,76.04
2014-10-03T04:53:12.533Z,76.12
2014-10-03T04:54:17.239Z,76.26
2014-10-03T04:55:21.944Z,76.09
2014-10-03T04:56:26.650Z,75.96
2014-10-03T04:57:31.338Z,75.79
2014-10-03T04:58:36.043Z,75.94
2014-10-03T04:59:40.749Z,75.88
2014-10-03T05:00:45.455Z,75.59
2014-10-03T05:01:50.144Z,75.63
2014-10-03T05:02:54.848Z,75.5
2014-10-03T05:03:59.554Z,75.64
2014-10-03T05:05:04.244Z,75.86
2014-10-03T05:06:08.949Z,75.65
2014-10-03T05:07:13.671Z,75.56
2014-10-03T05:08:18.359Z,75.72
2014-10-03T05:09:23.064Z,75.7
2014-10-03T05:10:27.755Z,75.74
2014-10-03T05:11:32.460Z,75.9
2014-10-03T05:12:37.462Z,75.49
2014-10-03T05:13:42.151Z,75.41
2014-10-03T05:14:46.857Z,75.65
2014-10-03T05:15:51.859Z,75.6
2014-10-03T05:16:56.579Z,75.63
2014-10-03T05:18:01.285Z,74.97
2014-10-03T05:19:05.974Z,75.3
2014-10-03T05:20:10.664Z,75.83
2014-10-03T05:21:15.369Z,76.29
2014-10-03T05:22:20.059Z,76.13
2014-10-03T05:23:24.763Z,75.91
2014-10-03T05:24:29.453Z,75.88
2014-10-03T05:25:34.143Z,75.74
2014-10-03T05:26:38.847Z,75.38
2014-10-03T05:27:43.538Z,73.85
2014-10-03T05:28:48.243Z,73.92
2014-10-03T05:29:52.932Z,74.78
2014-10-03T05:30:57.638Z,75.12
2014-10-03T05:32:02.327Z,75.49
2014-10-03T05:33:07.031Z,75.79
2014-10-03T05:34:11.722Z,75.87
2014-10-03T05:35:16.411Z,76.5
2014-10-03T05:36:21.413Z,77.36
2014-10-03T05:37:26.103Z,77.84
2014-10-03T05:38:30.808Z,77.75
2014-10-03T05:39:35.497Z,77.77
2014-10-03T05:40:40.203Z,77.38
2014-10-03T05:41:44.893Z,76.99
2014-10-03T05:42:49.645Z,76.89
2014-10-03T05:43:54.334Z,76.82
2014-10-03T05:44:59.320Z,77.16
2014-10-03T05:46:04.042Z,78.92
2014-10-03T05:47:08.747Z,79.08
2014-10-03T05:48:13.733Z,79.9
2014-10-03T05:49:18.438Z,80.28
2014-10-03T05:50:23.128Z,80.65
2014-10-03T05:51:28.115Z,80.23
2014-10-03T05:52:33.101Z,80.54
2014-10-03T05:53:37.790Z,80.31
2014-10-03T05:54:42.496Z,79.95
2014-10-03T05:55:47.185Z,80.11
2014-10-03T05:56:51.891Z,79.98
2014-10-03T05:57:56.876Z,79.99
2014-10-03T05:59:01.581Z,79.98
2014-10-03T06:00:06.272Z,79.86
2014-10-03T06:01:11.258Z,79.46
2014-10-03T06:02:15.947Z,79.36
2014-10-03T06:03:20.950Z,79.2
2014-10-03T06:04:25.639Z,79.28
2014-10-03T06:05:30.329Z,79.28
2014-10-03T06:06:35.315Z,79.07
2014-10-03T06:07:40.021Z,78.93
2014-10-03T06:08:44.725Z,78.84
2014-10-03T06:09:49.415Z,78.49
2014-10-03T06:10:54.121Z,78.19
2014-10-03T06:11:58.122Z,78.36
2014-10-03T06:13:02.811Z,78.54
2014-10-03T06:14:07.502Z,78.14
2014-10-03T06:15:12.488Z,77.89
2014-10-03T06:16:17.192Z,77.66
2014-10-03T06:17:22.180Z,77.32
2014-10-03T06:18:26.868Z,77.41
2014-10-03T06:19:31.559Z,77.4
2014-10-03T06:20:36.546Z,77.04
2014-10-03T06:21:41.250Z,76.61
2014-10-03T06:22:46.237Z,76.29
2014-10-03T06:23:50.926Z,75.94
2014-10-03T06:24:55.631Z,75.46
2014-10-03T06:26:00.336Z,75.6
2014-10-03T06:27:05.027Z,75.31
2014-10-03T06:28:09.732Z,74.93
2014-10-03T06:29:13.733Z,75.13
2014-10-03T06:30:18.424Z,74.83
2014-10-03T06:31:23.410Z,74.52
2014-10-03T06:32:28.115Z,73.79
2014-10-03T06:33:32.805Z,73.45
2014-10-03T06:34:37.510Z,73.43
2014-10-03T06:35:42.199Z,73.81
2014-10-03T06:36:46.904Z,73.47
2014-10-03T06:37:51.609Z,73.38
2014-10-03T06:38:56.611Z,73.06
2014-10-03T06:40:01.318Z,72.77
2014-10-03T06:41:06.007Z,72.36
2014-10-03T06:42:10.712Z,72.51
2014-10-03T06:43:15.416Z,71.56
2014-10-03T06:44:20.107Z,71.32
2014-10-03T06:45:24.812Z,71.69
2014-10-03T06:46:29.517Z,72.45
2014-10-03T06:47:34.207Z,72.13
2014-10-03T06:48:38.912Z,71.79
2014-10-03T06:49:43.897Z,71.12
2014-10-03T06:50:48.602Z,70.48
2014-10-03T06:51:53.308Z,69.93
2014-10-03T06:52:58.013Z,69.42
2014-10-03T06:54:02.703Z,69.23
2014-10-03T06:55:07.423Z,69.28
2014-10-03T06:56:12.129Z,67.92
2014-10-03T06:57:16.833Z,66.67
2014-10-03T06:58:21.538Z,65.44
2014-10-03T06:59:26.228Z,66.49
2014-10-03T07:00:30.948Z,68.41
2014-10-03T07:01:35.654Z,69.57
2014-10-03T07:02:40.344Z,70.41
2014-10-03T07:03:45.346Z,70.41
2014-10-03T07:04:50.052Z,71.09
2014-10-03T07:05:54.757Z,71.79
2014-10-03T07:06:59.462Z,71.91
2014-10-03T07:08:04.167Z,71.7
2014-10-03T07:09:08.857Z,71.56
2014-10-03T07:10:13.563Z,71.9
2014-10-03T07:11:18.268Z,71.96
2014-10-03T07:12:22.972Z,71.77
2014-10-03T07:13:27.678Z,72.14
2014-10-03T07:14:32.664Z,72.11
2014-10-03T07:15:37.370Z,71.95
2014-10-03T07:16:42.075Z,71.82
2014-10-03T07:17:46.764Z,72.43
2014-10-03T07:18:51.470Z,72.76
2014-10-03T07:19:56.456Z,73.09
2014-10-03T07:21:01.146Z,73.33
2014-10-03T07:22:06.132Z,72.74
2014-10-03T07:23:10.838Z,73.17
2014-10-03T07:24:15.823Z,73.14
2014-10-03T07:25:20.514Z,72.89
2014-10-03T07:26:25.219Z,73.78
2014-10-03T07:27:29.908Z,74.87
2014-10-03T07:28:34.613Z,75.86
2014-10-03T07:29:39.303Z,76.06
2014-10-03T07:30:44.289Z,76.18
2014-10-03T07:31:48.979Z,76.23
2014-10-03T07:32:53.684Z,76.96
2014-10-03T07:33:58.373Z,77.33
2014-10-03T07:35:03.079Z,76.96
2014-10-03T07:36:07.768Z,77.8
2014-10-03T07:37:12.458Z,77.64
2014-10-03T07:38:17.460Z,78.79
2014-10-03T07:39:22.149Z,78.33
2014-10-03T07:40:26.839Z,77.9
2014-10-03T07:41:31.545Z,77.24
2014-10-03T07:42:36.233Z,77.41
2014-10-03T07:43:40.923Z,77.29
2014-10-03T07:44:45.628Z,78.16
2014-10-03T07:45:50.319Z,79.54
2014-10-03T07:46:55.305Z,79.42
2014-10-03T07:48:00.010Z,79.81
2014-10-03T07:49:04.700Z,79.03
2014-10-03T07:50:09.420Z,79.1
2014-10-03T07:51:14.110Z,78.87
2014-10-03T07:52:18.815Z,78.76
2014-10-03T07:53:23.521Z,77.98
2014-10-03T07:54:28.210Z,77.4
2014-10-03T07:55:32.900Z,76.49
2014-10-03T07:56:37.605Z,75.37
2014-10-03T07:57:42.294Z,76.34
2014-10-03T07:58:47.281Z,76.29
2014-10-03T07:59:51.986Z,76.37
2014-10-03T08:00:56.676Z,77.22
2014-10-03T08:02:01.365Z,77.09
2014-10-03T08:03:06.069Z,77.32
2014-10-03T08:04:10.760Z,77
2014-10-03T08:05:15.449Z,77.26
2014-10-03T08:06:20.154Z,77.02
2014-10-03T08:07:24.844Z,77.03
2014-10-03T08:08:29.847Z,77.15
2014-10-03T08:09:34.551Z,78.81
2014-10-03T08:10:39.554Z,79.08
2014-10-03T08:11:44.243Z,78.5
2014-10-03T08:12:48.948Z,77.75
2014-10-03T08:13:53.638Z,77.42
2014-10-03T08:14:58.342Z,76.91
2014-10-03T08:16:03.033Z,76.75
2014-10-03T08:17:07.738Z,76.54
2014-10-03T08:18:12.427Z,77.88
2014-10-03T08:19:17.133Z,77.47
2014-10-03T08:20:21.838Z,77.88
2014-10-03T08:21:26.527Z,77.33
2014-10-03T08:22:31.232Z,77.14
2014-10-03T08:23:35.937Z,77.41
2014-10-03T08:24:40.643Z,76.66
2014-10-03T08:25:45.333Z,75.75
2014-10-03T08:26:50.038Z,75.95
2014-10-03T08:27:54.774Z,76.4
2014-10-03T08:28:59.479Z,76.29
2014-10-03T08:30:04.185Z,76.09
2014-10-03T08:31:08.890Z,75.8
2014-10-03T08:32:13.875Z,75.85
2014-10-03T08:33:18.581Z,75.02
2014-10-03T08:34:23.287Z,74.41
2014-10-03T08:35:27.992Z,74.87
2014-10-03T08:36:32.681Z,75.11
2014-10-03T08:37:37.386Z,75.23
2014-10-03T08:38:42.091Z,73.96
2014-10-03T08:39:46.797Z,73.29
2014-10-03T08:40:51.502Z,73.39
2014-10-03T08:41:56.207Z,73.68
2014-10-03T08:43:00.913Z,73.98
2014-10-03T08:44:05.618Z,72.67
2014-10-03T08:45:10.323Z,71.99
2014-10-03T08:46:15.027Z,72.45
2014-10-03T08:47:19.576Z,72.74
2014-10-03T08:48:24.281Z,72.32
2014-10-03T08:49:28.987Z,74.76
2014-10-03T08:50:33.708Z,75.99
2014-10-03T08:51:38.398Z,74.95
2014-10-03T08:52:43.103Z,74.7
2014-10-03T08:53:47.824Z,74.79
2014-10-03T08:54:52.529Z,74.35
2014-10-03T08:55:57.234Z,74.38
2014-10-03T08:57:01.940Z,74.17
2014-10-03T08:58:06.957Z,74.08
2014-10-03T08:59:11.647Z,74.33
2014-10-03T09:00:16.633Z,74.38
2014-10-03T09:01:21.338Z,74.36
2014-10-03T09:02:26.028Z,73.57
2014-10-03T09:03:30.733Z,73.94
2014-10-03T09:04:35.423Z,74.32
2014-10-03T09:05:40.112Z,74.07
2014-10-03T09:06:44.817Z,73.05
2014-10-03T09:07:49.507Z,72.49
2014-10-03T09:08:54.212Z,72.43
2014-10-03T09:09:58.901Z,72.29
2014-10-03T09:11:03.607Z,71.53
2014-10-03T09:12:08.297Z,71.41
2014-10-03T09:13:13.002Z,70.95
2014-10-03T09:14:17.691Z,70.51
2014-10-03T09:15:22.397Z,70.66
2014-10-03T09:16:27.085Z,69.77
2014-10-03T09:17:31.790Z,70.04
2014-10-03T09:18:36.481Z,69.57
2014-10-03T09:19:41.186Z,69.69
2014-10-03T09:20:45.876Z,69.53
2014-10-03T09:21:50.581Z,70.39
2014-10-03T09:22:55.567Z,69.94
2014-10-03T09:24:00.273Z,70.9
2014-10-03T09:25:04.962Z,70.29
2014-10-03T09:26:09.667Z,69.7
2014-10-03T09:27:14.356Z,68.62
2014-10-03T09:28:19.061Z,68.59
2014-10-03T09:29:23.767Z,68.65
2014-10-03T09:30:28.457Z,67.28
2014-10-03T09:31:33.178Z,68.48
2014-10-03T09:32:37.866Z,69.04
2014-10-03T09:33:42.571Z,68.23
2014-10-03T09:34:47.262Z,67.86
2014-10-03T09:35:51.967Z,67.88
2014-10-03T09:36:56.657Z,67.38
2014-10-03T09:38:01.362Z,67.13
2014-10-03T09:39:06.348Z,68.04
2014-10-03T09:40:11.054Z,66.83
2014-10-03T09:41:15.743Z,67.21
2014-10-03T09:42:20.729Z,67.31
2014-10-03T09:43:25.732Z,68.24
2014-10-03T09:44:30.421Z,67.4
2014-10-03T09:45:35.407Z,67.05
2014-10-03T09:46:40.113Z,67.33
2014-10-03T09:47:44.818Z,66.98
2014-10-03T09:48:49.804Z,67.15
2014-10-03T09:49:54.510Z,67.57
2014-10-03T09:50:59.199Z,66.55
2014-10-03T09:52:03.904Z,66.11
2014-10-03T09:53:08.625Z,65.25
2014-10-03T09:54:13.315Z,63.4
2014-10-03T09:55:18.020Z,62.9
2014-10-03T09:56:22.710Z,62.92
2014-10-03T09:57:27.414Z,62.35
2014-10-03T09:58:32.119Z,62.83
2014-10-03T09:59:37.107Z,65.18
2014-10-03T10:00:41.812Z,65.7
2014-10-03T10:01:46.500Z,65.72
2014-10-03T10:02:50.503Z,64.23
2014-10-03T10:03:55.209Z,64.27
2014-10-03T10:04:59.914Z,63.74
2014-10-03T10:06:04.603Z,64.21
2014-10-03T10:07:09.621Z,63.47
2014-10-03T10:08:14.608Z,64.12
2014-10-03T10:09:19.297Z,64.1
2014-10-03T10:10:24.002Z,63.93
2014-10-03T10:11:28.692Z,63.52
2014-10-03T10:12:33.396Z,63.26
2014-10-03T10:13:38.086Z,64.75
2014-10-03T10:14:42.792Z,63.28
2014-10-03T10:15:47.497Z,62.24
2014-10-03T10:16:52.187Z,63.97
2014-10-03T10:17:56.892Z,62.96
2014-10-03T10:19:01.597Z,64.6
2014-10-03T10:20:06.302Z,62.64
2014-10-03T10:21:11.288Z,62.68
2014-10-03T10:22:15.994Z,62.3
2014-10-03T10:23:20.996Z,60.49
2014-10-03T10:24:25.701Z,60.3
2014-10-03T10:25:30.391Z,61.25
2014-10-03T10:26:35.095Z,61.69
2014-10-03T10:27:40.082Z,60.75
2014-10-03T10:28:44.788Z,60.32
2014-10-03T10:29:49.493Z,60.25
2014-10-03T10:30:54.479Z,61.24
2014-10-03T10:31:59.183Z,60.96
2014-10-03T10:33:03.890Z,59.82
2014-10-03T10:34:08.595Z,59.64
2014-10-03T10:35:13.284Z,59.68
2014-10-03T10:36:17.989Z,59.92
2014-10-03T10:37:22.007Z,60.77
2014-10-03T10:38:26.712Z,59.23
2014-10-03T10:39:31.418Z,57.99
2014-10-03T10:40:36.122Z,58.24
2014-10-03T10:41:40.827Z,58.57
2014-10-03T10:42:44.846Z,58.98
2014-10-03T10:43:49.566Z,58.88
2014-10-03T10:44:54.287Z,58.09
2014-10-03T10:45:58.993Z,59.84
2014-10-03T10:47:03.979Z,60.05
2014-10-03T10:48:08.981Z,58.16
2014-10-03T10:49:13.686Z,57.1
2014-10-03T10:50:18.390Z,57.41
2014-10-03T10:51:23.096Z,57.88
2014-10-03T10:52:27.817Z,58.29
2014-10-03T10:53:32.897Z,57.36
2014-10-03T10:54:37.602Z,58.45
2014-10-03T10:55:42.323Z,58.66
2014-10-03T10:56:47.028Z,57.78
2014-10-03T10:57:51.749Z,55.55
2014-10-03T10:58:56.455Z,54.86
2014-10-03T11:00:01.159Z,55.41
2014-10-03T11:01:05.881Z,56.04
2014-10-03T11:02:10.602Z,56.9
2014-10-03T11:03:15.338Z,56.29
2014-10-03T11:04:20.042Z,55.24
2014-10-03T11:05:24.748Z,56.02
2014-10-03T11:06:29.469Z,55.46
2014-10-03T11:07:34.237Z,54.29
2014-10-03T11:08:38.942Z,53.83
2014-10-03T11:09:43.647Z,54.94
2014-10-03T11:10:48.369Z,53.14
2014-10-03T11:11:53.092Z,54.95
2014-10-03T11:12:57.869Z,54.77
2014-10-03T11:14:02.616Z,54.5
2014-10-03T11:15:07.363Z,53.76
2014-10-03T11:16:12.141Z,53.31
2014-10-03T11:17:16.850Z,52.48
2014-10-03T11:18:21.570Z,53.46
2014-10-03T11:19:26.587Z,53.81
2014-10-03T11:20:31.292Z,53.3
2014-10-03T11:21:36.010Z,52.25
2014-10-03T11:22:40.720Z,51.5
2014-10-03T11:23:45.713Z,52.58
2014-10-03T11:24:50.423Z,52.46
2014-10-03T11:25:55.134Z,51.1
2014-10-03T11:26:59.826Z,50.08
2014-10-03T11:28:04.534Z,51.13
2014-10-03T11:29:09.241Z,51.58
2014-10-03T11:30:13.948Z,50.28
2014-10-03T11:31:18.654Z,51.01
2014-10-03T11:32:23.360Z,51.55
2014-10-03T11:33:28.051Z,51.87
2014-10-03T11:34:33.054Z,50.78
2014-10-03T11:35:37.760Z,51.01
2014-10-03T11:36:42.466Z,50.59
2014-10-03T11:37:47.155Z,52.08
2014-10-03T11:38:51.860Z,50.88
2014-10-03T11:39:56.567Z,50.75
2014-10-03T11:41:01.273Z,50.42
2014-10-03T11:42:05.978Z,49.88
2014-10-03T11:43:10.666Z,49.27
2014-10-03T11:44:15.372Z,48.33
2014-10-03T11:45:20.062Z,49.87
2014-10-03T11:46:24.626Z,51.95
2014-10-03T11:47:29.332Z,50.01
2014-10-03T11:48:34.021Z,50.35
2014-10-03T11:49:38.742Z,49.8
2014-10-03T11:50:43.729Z,50.04
2014-10-03T11:51:48.433Z,50.57
2014-10-03T11:52:53.420Z,49.8
2014-10-03T11:53:58.126Z,49.03
2014-10-03T11:55:02.831Z,48.56
2014-10-03T11:56:07.520Z,48.68
2014-10-03T11:57:12.226Z,49.41
2014-10-03T11:58:16.931Z,48.52
2014-10-03T11:59:21.636Z,47.73
2014-10-03T12:00:26.638Z,49.83
2014-10-03T12:01:31.327Z,49.77
2014-10-03T12:02:36.032Z,49.45
2014-10-03T12:03:40.738Z,49.99
2014-10-03T12:04:45.443Z,49.78
2014-10-03T12:05:50.148Z,50.35
2014-10-03T12:06:54.853Z,49.82
2014-10-03T12:07:59.856Z,49.73
2014-10-03T12:09:04.560Z,49.44
2014-10-03T12:10:09.266Z,51.06
2014-10-03T12:11:13.987Z,51.16
2014-10-03T12:12:18.692Z,49.57
2014-10-03T12:13:23.382Z,49.39
2014-10-03T12:14:28.384Z,50
2014-10-03T12:15:33.073Z,50.44
2014-10-03T12:16:37.779Z,48.31
2014-10-03T12:17:42.468Z,46.89
2014-10-03T12:18:47.470Z,48.25
2014-10-03T12:19:52.175Z,48.75
2014-10-03T12:20:56.880Z,47.21
2014-10-03T12:22:01.586Z,48.45
2014-10-03T12:23:06.276Z,50.66
2014-10-03T12:24:11.278Z,49.37
2014-10-03T12:25:15.967Z,48.23
2014-10-03T12:26:20.672Z,48.51
2014-10-03T12:27:25.376Z,47.95
2014-10-03T12:28:30.364Z,48.26
2014-10-03T12:29:35.069Z,47.89
2014-10-03T12:30:40.071Z,47.95
2014-10-03T12:31:44.760Z,47.49
2014-10-03T12:32:49.465Z,48.78
2014-10-03T12:33:54.171Z,48.01
2014-10-03T12:34:58.876Z,47.53
2014-10-03T12:36:02.893Z,47.75
2014-10-03T12:37:07.911Z,47.36
2014-10-03T12:38:12.601Z,48.56
2014-10-03T12:39:17.306Z,48.4
2014-10-03T12:40:22.012Z,48.42
2014-10-03T12:41:27.014Z,48.51
2014-10-03T12:42:31.719Z,46.51
2014-10-03T12:43:36.705Z,48.26
2014-10-03T12:44:41.457Z,48.04
2014-10-03T12:45:46.162Z,48.57
2014-10-03T12:46:50.867Z,47.2
2014-10-03T12:47:55.573Z,47.55
2014-10-03T12:49:00.279Z,46.99
2014-10-03T12:50:04.968Z,46.05
2014-10-03T12:51:09.672Z,46.69
2014-10-03T12:52:14.377Z,48.17
2014-10-03T12:53:19.083Z,47.96
2014-10-03T12:54:23.789Z,47.52
2014-10-03T12:55:28.791Z,46.46
2014-10-03T12:56:33.496Z,46.13
2014-10-03T12:57:38.201Z,45.65
2014-10-03T12:58:42.906Z,46.05
2014-10-03T12:59:47.611Z,45.98
2014-10-03T13:00:52.316Z,45.87
2014-10-03T13:01:57.068Z,46.19
2014-10-03T13:03:01.790Z,46.7
2014-10-03T13:04:06.495Z,47.56
2014-10-03T13:05:11.199Z,47.78
2014-10-03T13:06:15.904Z,47.94
2014-10-03T13:07:19.939Z,48.02
2014-10-03T13:08:23.956Z,47.65
2014-10-03T13:09:28.660Z,48.26
2014-10-03T13:10:33.381Z,47.94
2014-10-03T13:11:38.086Z,46.36
2014-10-03T13:12:42.791Z,47.51
2014-10-03T13:13:47.498Z,46.61
2014-10-03T13:14:52.203Z,46.5
2014-10-03T13:15:56.908Z,47.3
2014-10-03T13:17:01.613Z,46.18
2014-10-03T13:18:06.318Z,45.94
2014-10-03T13:19:11.024Z,45.59
2014-10-03T13:20:15.728Z,45.06
2014-10-03T13:21:20.449Z,45.97
2014-10-03T13:22:25.155Z,44.95
2014-10-03T13:23:29.703Z,44.34
2014-10-03T13:24:33.722Z,44.99
2014-10-03T13:25:38.442Z,46.09
2014-10-03T13:26:43.147Z,44.9
2014-10-03T13:27:47.853Z,44.59
2014-10-03T13:28:52.558Z,45.71
2014-10-03T13:29:57.279Z,45.03
2014-10-03T13:31:01.984Z,45.16
2014-10-03T13:32:06.689Z,44.62
2014-10-03T13:33:11.456Z,45.51
2014-10-03T13:34:16.162Z,46.11
2014-10-03T13:35:20.867Z,45.54
2014-10-03T13:36:25.572Z,46.56
2014-10-03T13:37:30.261Z,46.27
2014-10-03T13:38:34.966Z,46.07
2014-10-03T13:39:39.657Z,46.24
2014-10-03T13:40:44.362Z,45.82
2014-10-03T13:41:49.067Z,45.73
2014-10-03T13:42:53.757Z,45.48
2014-10-03T13:43:58.759Z,44.87
2014-10-03T13:45:03.448Z,44.96
2014-10-03T13:46:08.153Z,44.06
2014-10-03T13:47:12.843Z,44.29
2014-10-03T13:48:17.845Z,43.79
2014-10-03T13:49:22.534Z,44.47
2014-10-03T13:50:27.521Z,44.48
2014-10-03T13:51:32.226Z,45.59
2014-10-03T13:52:36.932Z,44.98
2014-10-03T13:53:41.637Z,44.62
2014-10-03T13:54:46.342Z,45.52
2014-10-03T13:55:51.328Z,45.24
2014-10-03T13:56:56.034Z,44.04